Terminal Aerodrome Forecast
Issued by NWS Jackson, MS

Home | Current Version | Previous Version | Text Only | Print | Product List | Glossary On
Versions: 1 2 3 4 5 6 7 8 9 10 11 12 13 14 15
000
FTUS44 KJAN 300549
TAFHBG
TAF
KHBG 300549Z 3006/0106 14007KT 6SM BR BKN008
     FM301400 16016G25KT P6SM BKN015 OVC025
     FM301700 16016G25KT P6SM VCSH BKN040
     FM301900 16015G25KT 6SM -TSRA OVC040CB
     FM302300 17014KT P6SM VCSH OVC040
     FM010500 17006KT P6SM OVC025=

USA.gov is the U.S. government's official web portal to all federal, state and local government web resources and services.